createdAt,value
2018-03-02T00:00:27.527Z,56.92
2018-03-02T00:02:56.219Z,46.90
2018-03-02T00:05:24.901Z,47.92
2018-03-02T00:07:54.403Z,41.45
2018-03-02T00:10:23.654Z,24.92
2018-03-02T00:12:53.094Z,62.28
2018-03-02T00:15:21.919Z,54.33
2018-03-02T00:17:50.587Z,64.28
2018-03-02T00:20:19.699Z,54.35
2018-03-02T00:22:48.393Z,52.13
2018-03-02T00:25:17.076Z,51.28
2018-03-02T00:27:45.767Z,52.60
2018-03-02T00:30:14.452Z,30.67
2018-03-02T00:32:44.088Z,51.10
2018-03-02T00:35:13.540Z,55.60
2018-03-02T00:37:42.225Z,49.17
2018-03-02T00:40:10.255Z,58.60
2018-03-02T00:42:38.969Z,52.60
2018-03-02T00:45:07.304Z,55.67
2018-03-02T00:47:36.000Z,45.72
2018-03-02T00:50:04.365Z,44.40
2018-03-02T00:52:33.052Z,34.95
2018-03-02T00:55:01.392Z,59.33
2018-03-02T00:57:30.068Z,33.83
2018-03-02T00:59:58.762Z,43.97
2018-03-02T01:02:27.430Z,35.30
2018-03-02T01:04:55.825Z,24.92
2018-03-02T01:07:25.451Z,50.60
2018-03-02T01:09:54.883Z,23.15
2018-03-02T01:12:24.195Z,21.83
2018-03-02T01:14:52.875Z,56.50
2018-03-02T01:17:23.295Z,55.70
2018-03-02T01:19:51.934Z,55.45
2018-03-02T01:22:20.644Z,48.28
2018-03-02T01:24:49.743Z,37.80
2018-03-02T01:27:18.434Z,53.87
2018-03-02T01:29:46.969Z,36.80
2018-03-02T01:32:15.313Z,52.35
2018-03-02T01:34:44.022Z,52.22
2018-03-02T01:37:12.714Z,54.53
2018-03-02T01:39:41.403Z,20.17
2018-03-02T01:42:09.753Z,56.00
2018-03-02T01:44:38.437Z,51.20
2018-03-02T01:47:07.135Z,21.83
2018-03-02T01:49:35.822Z,44.38
2018-03-02T01:52:04.308Z,42.72
2018-03-02T01:54:33.009Z,15.93
2018-03-02T01:57:01.694Z,55.20
2018-03-02T01:59:30.367Z,46.60
2018-03-02T02:01:59.069Z,30.65
2018-03-02T02:04:28.541Z,33.25
2018-03-02T02:06:57.235Z,54.13
2018-03-02T02:09:25.618Z,51.42
2018-03-02T02:11:55.396Z,56.03
2018-03-02T02:14:24.067Z,48.70
2018-03-02T02:16:53.343Z,52.92
2018-03-02T02:19:23.284Z,48.33
2018-03-02T02:21:51.967Z,57.65
2018-03-02T02:24:20.614Z,9.43
2018-03-02T02:26:50.076Z,52.53
2018-03-02T02:29:18.730Z,60.78
2018-03-02T02:31:47.423Z,54.08
2018-03-02T02:34:16.084Z,32.97
2018-03-02T02:36:45.520Z,39.00
2018-03-02T02:39:14.219Z,56.15
2018-03-02T02:41:42.923Z,51.58
2018-03-02T02:44:12.388Z,29.65
2018-03-02T02:46:40.732Z,39.47
2018-03-02T02:49:09.405Z,54.15
2018-03-02T02:51:38.860Z,42.50
2018-03-02T02:54:07.200Z,44.63
2018-03-02T02:56:35.858Z,22.60
2018-03-02T02:59:05.330Z,25.83
2018-03-02T03:01:34.005Z,56.33
2018-03-02T03:04:02.691Z,44.70
2018-03-02T03:06:31.400Z,53.22
2018-03-02T03:09:00.072Z,54.88
2018-03-02T03:11:28.740Z,33.78
2018-03-02T03:13:57.449Z,41.72
2018-03-02T03:16:26.132Z,46.10
2018-03-02T03:18:54.782Z,20.10
2018-03-02T03:21:23.157Z,43.08
2018-03-02T03:23:52.010Z,31.80
2018-03-02T03:26:21.457Z,20.60
2018-03-02T03:28:50.164Z,22.87
2018-03-02T03:31:18.847Z,32.03
2018-03-02T03:33:48.318Z,35.60
2018-03-02T03:36:16.985Z,23.05
2018-03-02T03:38:45.652Z,52.72
2018-03-02T03:41:15.112Z,41.58
2018-03-02T03:43:43.805Z,31.33
2018-03-02T03:46:12.506Z,39.00
2018-03-02T03:48:40.979Z,30.75
2018-03-02T03:51:09.303Z,56.20
2018-03-02T03:53:37.997Z,61.70
2018-03-02T03:56:06.691Z,49.30
2018-03-02T03:58:35.359Z,52.45
2018-03-02T04:01:04.027Z,57.55
2018-03-02T04:03:33.497Z,27.90
2018-03-02T04:06:02.194Z,54.80
2018-03-02T04:08:30.893Z,51.65
2018-03-02T04:11:00.335Z,49.45
2018-03-02T04:13:29.021Z,53.33
2018-03-02T04:15:57.702Z,51.35
2018-03-02T04:18:26.370Z,47.90
2018-03-02T04:20:55.807Z,22.20
2018-03-02T04:23:25.380Z,47.45
2018-03-02T04:25:54.831Z,42.50
2018-03-02T04:28:23.172Z,49.65
2018-03-02T04:30:51.959Z,57.55
2018-03-02T04:33:20.626Z,43.75
2018-03-02T04:35:49.315Z,47.45
2018-03-02T04:38:17.318Z,56.50
2018-03-02T04:40:46.019Z,53.15
2018-03-02T04:43:14.698Z,47.33
2018-03-02T04:45:43.376Z,47.42
2018-03-02T04:48:12.089Z,46.90
2018-03-02T04:50:40.768Z,46.58
2018-03-02T04:53:09.443Z,52.38
2018-03-02T04:55:38.150Z,51.13
2018-03-02T04:58:06.829Z,36.20
2018-03-02T05:00:35.608Z,39.03
2018-03-02T05:03:04.290Z,24.40
2018-03-02T05:05:32.972Z,40.08
2018-03-02T05:08:01.703Z,48.22
2018-03-02T05:10:30.422Z,38.08
2018-03-02T05:12:58.902Z,59.58
2018-03-02T05:15:27.568Z,32.25
2018-03-02T05:17:56.273Z,55.17
2018-03-02T05:20:25.726Z,24.20
2018-03-02T05:22:55.221Z,55.12
2018-03-02T05:25:25.072Z,56.45
2018-03-02T05:27:54.398Z,26.92
2018-03-02T05:30:23.299Z,46.78
2018-03-02T05:32:52.120Z,31.90
2018-03-02T05:35:21.561Z,55.25
2018-03-02T05:37:50.261Z,32.97
2018-03-02T05:40:18.931Z,39.95
2018-03-02T05:42:47.604Z,36.85
2018-03-02T05:45:16.289Z,15.73
2018-03-02T05:47:44.969Z,53.45
2018-03-02T05:50:13.673Z,30.92
2018-03-02T05:52:42.343Z,45.35
2018-03-02T05:55:11.026Z,31.77
2018-03-02T05:57:39.702Z,8.95
2018-03-02T06:00:08.426Z,22.92
2018-03-02T06:02:38.033Z,17.20
2018-03-02T06:05:06.727Z,9.43
2018-03-02T06:07:35.429Z,45.63
2018-03-02T06:10:04.864Z,24.52
2018-03-02T06:12:33.598Z,30.55
2018-03-02T06:15:02.268Z,36.63
2018-03-02T06:17:31.067Z,28.35
2018-03-02T06:19:59.773Z,35.03
2018-03-02T06:22:29.247Z,47.30
2018-03-02T06:24:57.917Z,31.10
2018-03-02T06:27:26.594Z,14.05
2018-03-02T06:29:55.296Z,34.40
2018-03-02T06:32:24.810Z,40.28
2018-03-02T06:34:53.717Z,26.50
2018-03-02T06:37:22.936Z,25.83
2018-03-02T06:39:53.215Z,7.65
2018-03-02T06:42:22.276Z,18.25
2018-03-02T06:44:50.640Z,29.83
2018-03-02T06:47:19.345Z,33.50
2018-03-02T06:49:48.016Z,29.40
2018-03-02T06:52:16.721Z,17.08
2018-03-02T06:54:45.047Z,38.10
2018-03-02T06:57:14.156Z,52.20
2018-03-02T06:59:42.856Z,23.02
2018-03-02T07:02:11.514Z,26.55
2018-03-02T07:04:40.985Z,53.72
2018-03-02T07:07:09.646Z,35.75
2018-03-02T07:09:38.332Z,33.03
2018-03-02T07:12:07.032Z,47.47
2018-03-02T07:14:35.713Z,33.70
2018-03-02T07:17:04.415Z,40.30
2018-03-02T07:19:33.101Z,29.33
2018-03-02T07:22:01.775Z,28.95
2018-03-02T07:24:30.464Z,36.05
2018-03-02T07:26:59.122Z,36.35
2018-03-02T07:29:27.830Z,18.05
2018-03-02T07:31:56.709Z,42.25
2018-03-02T07:34:25.393Z,32.50
2018-03-02T07:36:54.458Z,39.40
2018-03-02T07:39:23.137Z,51.20
2018-03-02T07:41:52.067Z,49.03
2018-03-02T07:44:20.748Z,46.33
2018-03-02T07:46:49.403Z,56.78
2018-03-02T07:49:18.100Z,37.63
2018-03-02T07:51:46.579Z,18.62
2018-03-02T07:54:15.235Z,22.50
2018-03-02T07:56:43.947Z,27.70
2018-03-02T07:59:12.624Z,27.13
2018-03-02T08:01:41.300Z,21.50
2018-03-02T08:04:09.671Z,33.85
2018-03-02T08:06:38.371Z,29.25
2018-03-02T08:09:07.045Z,26.92
2018-03-02T08:11:35.729Z,30.70
2018-03-02T08:14:04.420Z,22.55
2018-03-02T08:16:33.092Z,20.27
2018-03-02T08:19:01.778Z,22.83
2018-03-02T08:21:30.436Z,24.12
2018-03-02T08:23:59.895Z,34.30
2018-03-02T08:26:28.241Z,25.27
2018-03-02T08:28:56.944Z,26.75
2018-03-02T08:31:25.630Z,17.55
2018-03-02T08:33:54.310Z,59.80
2018-03-02T08:36:23.055Z,50.40
2018-03-02T08:38:52.258Z,50.50
2018-03-02T08:41:21.705Z,28.75
2018-03-02T08:43:50.523Z,44.47
2018-03-02T08:46:18.901Z,39.40
2018-03-02T08:48:47.584Z,39.20
2018-03-02T08:51:16.260Z,20.95
2018-03-02T08:53:44.768Z,27.37
2018-03-02T08:56:14.203Z,39.45
2018-03-02T08:58:42.903Z,36.97
2018-03-02T09:01:11.592Z,55.42
2018-03-02T09:03:40.253Z,53.90
2018-03-02T09:06:08.955Z,49.42
2018-03-02T09:08:37.618Z,54.47
2018-03-02T09:11:06.284Z,50.10
2018-03-02T09:13:35.554Z,7.18
2018-03-02T09:16:04.236Z,30.05
2018-03-02T09:18:32.926Z,19.73
2018-03-02T09:21:01.610Z,28.60
2018-03-02T09:23:30.296Z,58.47
2018-03-02T09:25:58.959Z,17.67
2018-03-02T09:28:27.660Z,33.35
2018-03-02T09:30:56.364Z,26.35
2018-03-02T09:33:25.794Z,51.88
2018-03-02T09:35:54.151Z,37.15
2018-03-02T09:38:22.495Z,51.95
2018-03-02T09:40:51.630Z,31.40
2018-03-02T09:43:20.684Z,30.08
2018-03-02T09:45:49.365Z,51.08
2018-03-02T09:48:18.084Z,23.33
2018-03-02T09:50:46.920Z,52.13
2018-03-02T09:53:16.371Z,51.47
2018-03-02T09:55:45.820Z,57.90
2018-03-02T09:58:14.490Z,47.53
2018-03-02T10:00:43.611Z,57.40
2018-03-02T10:03:12.108Z,26.17
2018-03-02T10:05:40.792Z,38.45
2018-03-02T10:08:09.153Z,56.80
2018-03-02T10:10:37.818Z,61.40
2018-03-02T10:13:06.521Z,50.10
2018-03-02T10:15:35.394Z,57.72
2018-03-02T10:18:04.067Z,57.00
2018-03-02T10:20:32.754Z,57.60
2018-03-02T10:23:01.448Z,40.20
2018-03-02T10:25:30.127Z,36.80
2018-03-02T10:27:58.796Z,47.72
2018-03-02T10:30:27.484Z,61.58
2018-03-02T10:32:56.142Z,39.40
2018-03-02T10:35:25.627Z,56.45
2018-03-02T10:37:55.083Z,42.55
2018-03-02T10:40:23.756Z,62.53
2018-03-02T10:42:52.116Z,31.77
2018-03-02T10:45:20.792Z,55.53
2018-03-02T10:47:52.051Z,16.67
2018-03-02T10:50:20.727Z,17.62
2018-03-02T10:52:49.405Z,48.13
2018-03-02T10:55:18.090Z,62.25
2018-03-02T10:57:47.529Z,20.20
2018-03-02T11:03:23.230Z,50.83
2018-03-02T11:05:52.169Z,42.65
2018-03-02T11:08:21.181Z,61.67
2018-03-02T11:10:49.868Z,21.62
2018-03-02T11:13:18.571Z,25.35
2018-03-02T11:15:47.252Z,35.25
2018-03-02T11:18:15.919Z,40.28
2018-03-02T11:20:45.339Z,31.40
2018-03-02T11:23:14.012Z,53.67
2018-03-02T11:25:42.701Z,43.50
2018-03-02T11:28:11.376Z,35.72
2018-03-02T11:30:40.079Z,51.30
2018-03-02T11:33:08.768Z,58.97
2018-03-02T11:35:37.481Z,27.05
2018-03-02T11:38:06.952Z,60.20
2018-03-02T11:40:35.632Z,39.03
2018-03-02T11:43:04.317Z,43.20
2018-03-02T11:45:33.024Z,19.45
2018-03-02T11:48:01.496Z,19.70
2018-03-02T11:50:30.172Z,44.30
2018-03-02T11:52:58.547Z,32.40
2018-03-02T11:55:27.206Z,57.25
2018-03-02T11:57:55.899Z,64.25
2018-03-02T12:00:24.604Z,46.80
2018-03-02T12:02:53.315Z,49.10
2018-03-02T12:05:21.743Z,56.90
2018-03-02T12:07:50.125Z,43.65
2018-03-02T12:10:19.317Z,30.93
2018-03-02T12:12:48.033Z,58.45
2018-03-02T12:15:16.449Z,36.90
2018-03-02T12:17:44.855Z,34.60
2018-03-02T12:20:14.066Z,13.97
2018-03-02T12:22:42.477Z,43.33
2018-03-02T12:25:11.007Z,47.97
2018-03-02T12:27:39.108Z,53.37
2018-03-02T12:30:07.795Z,54.08
2018-03-02T12:32:36.195Z,59.53
2018-03-02T12:35:04.606Z,57.60
2018-03-02T12:37:33.004Z,30.10
2018-03-02T12:40:01.533Z,61.47
2018-03-02T12:42:29.933Z,57.73
2018-03-02T12:44:58.383Z,53.87
2018-03-02T12:47:26.438Z,61.07
2018-03-02T12:49:54.848Z,55.83
2018-03-02T12:52:24.136Z,58.33
2018-03-02T12:54:53.113Z,57.90
2018-03-02T12:57:21.608Z,65.23
2018-03-02T12:59:50.035Z,59.83
2018-03-02T13:02:19.202Z,61.97
2018-03-02T13:04:47.640Z,63.97
2018-03-02T13:07:16.053Z,58.77
2018-03-02T13:09:44.469Z,52.07
2018-03-02T13:12:12.915Z,55.60
2018-03-02T13:14:41.492Z,52.93
2018-03-02T13:17:09.924Z,55.83
2018-03-02T13:19:38.756Z,53.53
2018-03-02T13:22:06.479Z,58.27
2018-03-02T13:24:35.687Z,56.67
2018-03-02T13:27:15.376Z,53.67
2018-03-02T13:29:43.488Z,58.63
2018-03-02T13:32:12.698Z,56.83
2018-03-02T13:34:53.227Z,61.50
2018-03-02T13:37:22.384Z,63.70
2018-03-02T13:40:02.102Z,67.33
2018-03-02T13:42:29.861Z,60.10
2018-03-02T13:44:58.247Z,60.67
2018-03-02T13:47:35.802Z,56.30
2018-03-02T13:50:08.958Z,68.13
2018-03-02T13:52:37.054Z,63.63
2018-03-02T13:55:05.453Z,58.87
2018-03-02T13:57:45.761Z,59.63
2018-03-02T14:00:14.177Z,59.23
2018-03-02T14:02:54.524Z,60.43
2018-03-02T14:05:22.928Z,60.50
2018-03-02T14:07:52.172Z,65.50
2018-03-02T14:10:20.593Z,60.83
2018-03-02T14:12:49.757Z,57.97
2018-03-02T14:15:18.155Z,57.20
2018-03-02T14:17:47.160Z,63.23
2018-03-02T14:20:16.310Z,63.33
2018-03-02T14:22:45.483Z,62.90
2018-03-02T14:25:13.678Z,66.10
2018-03-02T14:27:42.089Z,62.13
2018-03-02T14:30:10.933Z,56.83
2018-03-02T14:32:39.342Z,57.87
2018-03-02T14:35:07.862Z,61.20
2018-03-02T14:37:36.259Z,64.00
2018-03-02T14:40:04.656Z,67.93
2018-03-02T14:42:33.851Z,68.13
2018-03-02T14:45:02.269Z,58.30
2018-03-02T14:47:31.433Z,64.07
2018-03-02T14:49:59.851Z,63.93
2018-03-02T14:52:29.016Z,58.20
2018-03-02T14:54:57.412Z,64.53
2018-03-02T14:57:25.846Z,67.83
2018-03-02T14:59:54.242Z,64.80
2018-03-02T15:02:22.761Z,60.87
2018-03-02T15:04:51.352Z,65.87
2018-03-02T15:07:19.772Z,59.50
2018-03-02T15:09:48.186Z,58.23
2018-03-02T15:12:16.586Z,63.20
2018-03-02T15:14:45.031Z,60.70
2018-03-02T15:17:13.428Z,55.27
2018-03-02T15:19:42.588Z,58.83
2018-03-02T15:22:11.015Z,70.53
2018-03-02T15:24:39.406Z,64.57
2018-03-02T15:27:07.837Z,59.60
2018-03-02T15:29:36.243Z,64.83
2018-03-02T15:32:05.425Z,60.63
2018-03-02T15:37:30.209Z,57.50
2018-03-02T15:39:58.611Z,66.97
2018-03-02T15:42:27.810Z,62.40
2018-03-02T15:44:57.171Z,58.20
2018-03-02T15:47:25.559Z,66.23
2018-03-02T15:49:54.650Z,60.50
2018-03-02T15:52:23.164Z,65.87
2018-03-02T15:54:51.667Z,58.73
2018-03-02T15:57:20.092Z,64.70
2018-03-02T15:59:48.478Z,62.33
2018-03-02T16:02:16.905Z,70.07
2018-03-02T16:04:45.299Z,74.23
2018-03-02T16:07:13.708Z,63.83
2018-03-02T16:09:42.141Z,67.77
2018-03-02T16:12:10.548Z,67.67
2018-03-02T16:14:38.984Z,72.73
2018-03-02T16:17:07.388Z,66.33
2018-03-02T16:19:35.821Z,72.60
2018-03-02T16:22:04.447Z,63.07
2018-03-02T16:24:32.945Z,71.80
2018-03-02T16:27:01.354Z,73.70
2018-03-02T16:29:30.590Z,79.43
2018-03-02T16:31:58.987Z,72.77
2018-03-02T16:34:27.214Z,76.17
2018-03-02T16:36:55.625Z,75.27
2018-03-02T16:39:24.401Z,79.73
2018-03-02T16:41:53.492Z,78.83
2018-03-02T16:44:21.906Z,79.80
2018-03-02T16:46:50.330Z,80.10
2018-03-02T16:49:18.769Z,70.20
2018-03-02T16:51:47.199Z,79.00
2018-03-02T16:54:15.627Z,77.93
2018-03-02T16:56:44.090Z,78.53
2018-03-02T16:59:12.542Z,71.37
2018-03-02T17:01:40.934Z,84.27
2018-03-02T17:04:09.352Z,79.83
2018-03-02T17:06:37.756Z,72.60
2018-03-02T17:09:06.171Z,76.37
2018-03-02T17:11:34.579Z,69.87
2018-03-02T17:14:03.098Z,76.80
2018-03-02T17:16:31.532Z,79.70
2018-03-02T17:18:59.595Z,78.60
2018-03-02T17:21:28.016Z,76.43
2018-03-02T17:23:56.094Z,79.87
2018-03-02T17:26:25.386Z,83.77
2018-03-02T17:28:53.826Z,78.03
2018-03-02T17:31:22.295Z,80.37
2018-03-02T17:33:50.379Z,77.13
2018-03-02T17:36:18.901Z,80.37
2018-03-02T17:38:47.338Z,82.43
2018-03-02T17:41:15.747Z,76.43
2018-03-02T17:43:44.913Z,79.13
2018-03-02T17:46:13.335Z,76.50
2018-03-02T17:48:41.740Z,78.80
2018-03-02T17:51:10.127Z,78.83
2018-03-02T17:53:39.314Z,71.83
2018-03-02T17:56:07.548Z,72.73
2018-03-02T17:58:35.952Z,78.60
2018-03-02T18:01:04.739Z,71.23
2018-03-02T18:03:33.145Z,85.53
2018-03-02T18:06:01.581Z,77.27
2018-03-02T18:08:29.996Z,73.33
2018-03-02T18:10:58.064Z,76.37
2018-03-02T18:13:26.489Z,79.50
2018-03-02T18:15:55.675Z,75.30
2018-03-02T18:18:24.943Z,75.17
2018-03-02T18:20:53.733Z,70.97
2018-03-02T18:23:22.154Z,77.47
2018-03-02T18:25:50.556Z,73.27
2018-03-02T18:28:18.652Z,75.33
2018-03-02T18:30:47.816Z,80.87
2018-03-02T18:33:16.225Z,77.87
2018-03-02T18:35:44.649Z,76.33
2018-03-02T18:38:13.103Z,80.57
2018-03-02T18:40:41.486Z,73.13
2018-03-02T18:43:09.896Z,78.70
2018-03-02T18:45:38.302Z,78.63
2018-03-02T18:48:06.822Z,81.27
2018-03-02T18:50:35.211Z,80.20
2018-03-02T18:53:03.618Z,84.63
2018-03-02T18:55:32.049Z,75.70
2018-03-02T18:58:00.122Z,89.90
2018-03-02T19:00:28.513Z,82.60
2018-03-02T19:02:57.691Z,78.53
2018-03-02T19:05:26.083Z,87.47
2018-03-02T19:07:55.484Z,87.10
2018-03-02T19:10:25.608Z,83.77
2018-03-02T19:12:55.755Z,90.40
2018-03-02T19:15:24.935Z,90.87
2018-03-02T19:17:54.512Z,84.07
2018-03-02T19:20:23.565Z,91.87
2018-03-02T19:22:52.259Z,95.80
2018-03-02T19:25:21.463Z,83.27
2018-03-02T19:27:49.952Z,89.30
2018-03-02T19:30:19.236Z,93.93
2018-03-02T19:32:47.704Z,90.20
2018-03-02T19:35:16.279Z,88.97
2018-03-02T19:37:44.598Z,85.90
2018-03-02T19:40:13.914Z,86.40
2018-03-02T19:42:42.460Z,87.43
2018-03-02T19:45:10.654Z,96.57
2018-03-02T19:47:39.976Z,84.07
2018-03-02T19:50:08.418Z,91.90
2018-03-02T19:52:36.925Z,91.50
2018-03-02T19:55:05.526Z,97.97
2018-03-02T19:57:34.054Z,85.03
2018-03-02T20:00:02.195Z,92.03
2018-03-02T20:02:30.733Z,88.30
2018-03-02T20:04:59.969Z,98.87
2018-03-02T20:07:28.389Z,89.77
2018-03-02T20:09:56.829Z,94.20
2018-03-02T20:12:26.089Z,92.60
2018-03-02T20:14:56.109Z,98.73
2018-03-02T20:17:26.071Z,94.23
2018-03-02T20:19:54.537Z,84.77
2018-03-02T20:22:23.236Z,98.70
2018-03-02T20:24:51.633Z,89.10
2018-03-02T20:27:20.086Z,91.20
2018-03-02T20:29:48.564Z,90.27
2018-03-02T20:32:17.040Z,91.40
2018-03-02T20:34:45.476Z,98.10
2018-03-02T20:37:14.689Z,97.60
2018-03-02T20:39:43.854Z,104.17
2018-03-02T20:42:12.265Z,103.50
2018-03-02T20:44:40.684Z,91.40
2018-03-02T20:47:09.107Z,98.00
2018-03-02T20:49:38.259Z,89.10
2018-03-02T20:52:06.666Z,98.60
2018-03-02T20:54:35.060Z,97.80
2018-03-02T20:57:04.254Z,96.73
2018-03-02T20:59:33.420Z,96.77
2018-03-02T21:02:01.814Z,93.23
2018-03-02T21:04:30.681Z,88.80
2018-03-02T21:06:59.204Z,96.17
2018-03-02T21:09:28.415Z,93.83
2018-03-02T21:11:56.818Z,97.03
2018-03-02T21:14:25.799Z,92.10
2018-03-02T21:16:54.340Z,103.03
2018-03-02T21:19:23.799Z,104.13
2018-03-02T21:21:52.209Z,106.20
2018-03-02T21:24:21.397Z,102.73
2018-03-02T21:26:49.828Z,105.47
2018-03-02T21:29:18.233Z,99.77
2018-03-02T21:31:46.650Z,91.60
2018-03-02T21:34:18.977Z,98.03
2018-03-02T21:36:44.406Z,103.53
2018-03-02T21:39:12.840Z,91.03
2018-03-02T21:41:41.252Z,102.03
2018-03-02T21:44:09.700Z,96.00
2018-03-02T21:46:38.119Z,99.13
2018-03-02T21:49:06.520Z,99.70
2018-03-02T21:51:35.730Z,102.30
2018-03-02T21:54:04.124Z,98.93
2018-03-02T21:56:32.519Z,110.63
2018-03-02T21:59:01.154Z,111.37
2018-03-02T22:01:30.326Z,105.23
2018-03-02T22:03:58.723Z,108.07
2018-03-02T22:06:27.916Z,107.40
2018-03-02T22:08:57.102Z,99.40
2018-03-02T22:11:26.478Z,111.43
2018-03-02T22:13:55.667Z,99.10
2018-03-02T22:16:24.063Z,100.90
2018-03-02T22:18:52.464Z,101.10
2018-03-02T22:21:21.660Z,110.60
2018-03-02T22:23:50.060Z,131.10
2018-03-02T22:26:18.484Z,99.27
2018-03-02T22:28:46.934Z,123.10
2018-03-02T22:31:15.335Z,98.80
2018-03-02T22:33:43.736Z,100.77
2018-03-02T22:36:11.974Z,108.27
2018-03-02T22:38:40.380Z,103.07
2018-03-02T22:41:08.772Z,115.27
2018-03-02T22:43:37.293Z,110.67
2018-03-02T22:46:05.694Z,113.73
2018-03-02T22:48:34.119Z,101.47
2018-03-02T22:51:03.293Z,97.00
2018-03-02T22:53:31.729Z,105.17
2018-03-02T22:56:00.141Z,108.63
2018-03-02T22:58:28.552Z,103.43
2018-03-02T23:00:57.168Z,108.57
2018-03-02T23:03:26.489Z,109.43
2018-03-02T23:05:55.208Z,106.67
2018-03-02T23:08:23.963Z,109.03
2018-03-02T23:10:52.391Z,114.90
2018-03-02T23:13:21.564Z,108.00
2018-03-02T23:15:50.001Z,115.53
2018-03-02T23:18:18.406Z,122.97
2018-03-02T23:20:46.808Z,119.23
2018-03-02T23:23:15.235Z,117.97
2018-03-02T23:25:43.628Z,112.27
2018-03-02T23:28:12.035Z,103.53
2018-03-02T23:30:40.460Z,120.60
2018-03-02T23:33:08.861Z,120.63
2018-03-02T23:35:37.291Z,108.53
2018-03-02T23:38:06.271Z,109.37
2018-03-02T23:40:35.440Z,107.37
2018-03-02T23:43:03.873Z,97.30
2018-03-02T23:45:32.283Z,99.23
2018-03-02T23:48:00.688Z,111.27
2018-03-02T23:50:29.122Z,109.87
2018-03-02T23:52:57.548Z,110.23
2018-03-02T23:55:25.952Z,116.70
2018-03-02T23:57:54.904Z,118.17
